Kansasville, WI

12:22 AM CDT on August 30, 2014 (GMT -0500)
Rochester, WI | Change Station
CLOSE
Current Station
Personal Weather Station
Location: Rochester, WI
Elevation: 780 ft
Nearby Weather Stations

Elev 780 ft 42.74 °N, 88.24 °W | Updated 3 seconds ago

Mostly Cloudy
Mostly Cloudy
70.7 °F
Feels Like 70.7 °F
N
0.7
Wind Variable Wind from South
Gusts 3.8 mph

Today
High -- | Low -- °F
--% Chance of Precip.
Yesterday
High -- | Low -- °F
Precip. -- in
6:15 AM 7:30 PM
Waxing Crescent, 19% visible
Pressure 29.85 in
Visibility 10.0 miles
Clouds Clear
Dew Point 68 °F
Humidity 90%
Rainfall 0.00 in
Snow Depth Not available.
UV 0 out of 12
Pollen 1.30 out of 12
Ozone Good
PM2.5 Good
Flu Activity Not available.
METAR KBUU 300455Z AUTO 00000KT 10SM CLR 20/19 A2985 RMK AO2 T02010190

More Conditions Fewer Conditions

Pressure 29.85 in
Visibility 10.0 miles
Clouds Clear
Dew Point 68 °F
Humidity 90%
Rainfall 0.00 in
Snow Depth Not available.
UV 0 out of 12
Pollen 1.30 out of 12
Ozone Good
PM2.5 Good
Flu Activity Not available.
METAR KBUU 300455Z AUTO 00000KT 10SM CLR 20/19 A2985 RMK AO2 T02010190

More Conditions Fewer Conditions

10-Day Weather Forecast

Almanac

Astronomy

Aug. 30, 2014 Rise Set
Actual Time 6:15 AM CDT 7:30 PM CDT
Civil Twilight 5:45 AM CDT 7:59 PM CDT
Nautical Twilight 5:10 AM CDT 8:34 PM CDT
Astronomical Twilight 4:33 AM CDT 9:11 PM CDT
Moon 11:09 AM CDT 9:56 PM CDT
Length of Visible Light 14h 13m
Length of Day
13h 15m
Tomorrow will be 2m 45s shorter.
Waxing Crescent, 19% of the Moon is Illuminated
Today
Waxing Crescent
Sep 2
First Quarter
Sep 8
Full
Sep 15
Last Quarter
Sep 24
New

Today's Extremes

State Highs State Lows

Community

WunderPhotos

Upload Photos

1,748,465 photos uploaded!

Nearby

Air Quality

  Air Quality AQ Index Pollutant
Yesterday Good
OZONE
Yesterday Good
PM2.5
Current Good
OZONE
Current Good
PM2.5
Friday Moderate
OZONE
Friday Good
PM2.5
Saturday Good
OZONE
Saturday Good
PM2.5
Sunday Moderate
OZONE
Sunday Moderate
PM2.5
Monday Good
OZONE
Monday Good
PM2.5
Tuesday Good
OZONE
Tuesday Good
PM2.5

Snow Depth

Station Depth Elevation
No new snow has been reported.

Earthquake Activity

City Distance Mag. Time & Date
No recent earthquake activity has been reported nearby.
Minimum magnitude displayed is 2.5.

Coastal Water Temperatures

Place Temperature
No Stations Reporting

Nearby Weather Stations